createdAt,value
2023-03-16T00:02:09.258Z,51.62
2023-03-16T00:05:12.938Z,51.89
2023-03-16T00:08:15.406Z,51.85
2023-03-16T00:11:17.329Z,52.83
2023-03-16T00:14:19.133Z,52.78
2023-03-16T00:17:21.601Z,53.75
2023-03-16T00:20:23.457Z,53.95
2023-03-16T00:23:29.290Z,54.05
2023-03-16T00:26:31.887Z,54.04
2023-03-16T00:29:34.817Z,54.26
2023-03-16T00:32:38.956Z,54.89
2023-03-16T00:35:49.636Z,54.72
2023-03-16T00:38:52.268Z,55.06
2023-03-16T00:41:58.352Z,55.12
2023-03-16T00:45:01.712Z,55.57
2023-03-16T00:48:04.914Z,55.38
2023-03-16T00:51:08.913Z,56.27
2023-03-16T00:54:11.023Z,55.93
2023-03-16T00:57:14.911Z,56.29
2023-03-16T01:00:20.345Z,57.04
2023-03-16T01:03:22.450Z,57.42
2023-03-16T01:06:24.461Z,57.87
2023-03-16T01:09:26.380Z,57.80
2023-03-16T01:12:28.502Z,57.67
2023-03-16T01:15:30.864Z,57.83
2023-03-16T01:18:35.471Z,57.66
2023-03-16T01:21:38.307Z,58.52
2023-03-16T01:24:41.049Z,58.84
2023-03-16T01:27:43.158Z,59.02
2023-03-16T01:30:45.290Z,59.45
2023-03-16T01:33:47.078Z,60.28
2023-03-16T01:36:49.948Z,59.97
2023-03-16T01:39:51.859Z,60.03
2023-03-16T01:43:04.639Z,59.76
2023-03-16T01:46:06.411Z,59.77
2023-03-16T01:49:15.151Z,60.03
2023-03-16T01:52:20.491Z,60.30
2023-03-16T01:55:22.615Z,59.73
2023-03-16T01:58:24.415Z,60.57
2023-03-16T02:01:27.702Z,60.79
2023-03-16T02:04:32.251Z,60.63
2023-03-16T02:07:38.246Z,61.26
2023-03-16T02:10:40.517Z,61.74
2023-03-16T02:13:43.614Z,61.40
2023-03-16T02:16:45.602Z,60.87
2023-03-16T02:19:52.733Z,61.32
2023-03-16T02:22:54.620Z,62.14
2023-03-16T02:26:17.655Z,62.48
2023-03-16T02:29:29.737Z,62.44
2023-03-16T02:32:32.444Z,62.73
2023-03-16T02:35:34.615Z,62.85
2023-03-16T02:38:36.514Z,63.07
2023-03-16T02:41:39.320Z,63.81
2023-03-16T02:44:43.821Z,64.85
2023-03-16T02:47:46.695Z,64.75
2023-03-16T02:50:50.887Z,64.70
2023-03-16T02:53:52.628Z,64.91
2023-03-16T02:56:54.507Z,64.93
2023-03-16T02:59:56.348Z,64.53
2023-03-16T03:02:58.355Z,65.33
2023-03-16T03:06:01.672Z,65.56
2023-03-16T03:09:04.146Z,66.13
2023-03-16T03:12:06.313Z,66.07
2023-03-16T03:15:08.925Z,65.46
2023-03-16T03:18:10.787Z,65.11
2023-03-16T03:21:13.211Z,65.25
2023-03-16T03:24:15.053Z,65.24
2023-03-16T03:27:16.861Z,65.60
2023-03-16T03:30:20.908Z,65.93
2023-03-16T03:33:23.307Z,65.26
2023-03-16T03:36:25.080Z,65.32
2023-03-16T03:39:27.081Z,65.78
2023-03-16T03:42:28.800Z,65.98
2023-03-16T03:45:30.671Z,65.61
2023-03-16T03:48:32.456Z,65.78
2023-03-16T03:51:34.622Z,66.39
2023-03-16T03:54:36.898Z,66.77
2023-03-16T03:57:38.802Z,66.82
2023-03-16T04:00:40.672Z,66.94
2023-03-16T04:03:45.111Z,66.48
2023-03-16T04:06:47.315Z,66.25
2023-03-16T04:09:49.069Z,66.15
2023-03-16T04:12:51.259Z,66.66
2023-03-16T04:16:02.704Z,67.00
2023-03-16T04:19:04.735Z,67.81
2023-03-16T04:22:07.695Z,69.39
2023-03-16T04:25:11.537Z,70.18
2023-03-16T04:28:13.774Z,70.49
2023-03-16T04:31:15.638Z,71.64
2023-03-16T04:34:17.582Z,71.23
2023-03-16T04:37:19.393Z,71.88
2023-03-16T04:40:21.478Z,71.00
2023-03-16T04:43:23.355Z,70.57
2023-03-16T04:46:26.837Z,71.10
2023-03-16T04:49:28.658Z,70.48
2023-03-16T04:52:30.861Z,70.05
2023-03-16T04:55:32.761Z,68.79
2023-03-16T04:58:35.021Z,68.15
2023-03-16T05:01:38.355Z,67.74
2023-03-16T05:04:40.409Z,68.36
2023-03-16T05:07:43.006Z,67.88
2023-03-16T05:10:47.626Z,66.85
2023-03-16T05:13:49.462Z,66.81
2023-03-16T05:16:52.286Z,66.16
2023-03-16T05:19:54.149Z,66.19
2023-03-16T05:22:55.983Z,65.92
2023-03-16T05:25:59.874Z,65.17
2023-03-16T05:29:02.026Z,65.37
2023-03-16T05:32:04.115Z,65.53
2023-03-16T05:35:07.209Z,65.12
2023-03-16T05:38:10.070Z,64.69
2023-03-16T05:41:12.115Z,64.24
2023-03-16T05:44:13.901Z,62.15
2023-03-16T05:47:15.929Z,52.84
2023-03-16T05:50:18.121Z,47.08
2023-03-16T05:53:20.592Z,43.12
2023-03-16T05:56:24.865Z,40.64
2023-03-16T05:59:27.295Z,42.97
2023-03-16T06:02:29.324Z,43.85
2023-03-16T06:05:32.127Z,42.47
2023-03-16T06:08:33.996Z,36.24
2023-03-16T06:11:36.108Z,37.82
2023-03-16T06:14:37.988Z,43.36
2023-03-16T06:17:41.485Z,46.32
2023-03-16T06:20:43.672Z,48.10
2023-03-16T06:23:45.439Z,48.69
2023-03-16T06:26:47.235Z,48.65
2023-03-16T06:29:49.069Z,49.36
2023-03-16T06:32:52.274Z,49.21
2023-03-16T06:35:54.199Z,49.94
2023-03-16T06:38:56.003Z,48.85
2023-03-16T06:42:04.512Z,48.39
2023-03-16T06:45:06.866Z,48.72
2023-03-16T06:48:09.984Z,48.12
2023-03-16T06:51:11.857Z,48.03
2023-03-16T06:54:13.764Z,48.11
2023-03-16T06:57:15.630Z,46.72
2023-03-16T07:00:17.933Z,46.70
2023-03-16T07:03:19.892Z,46.18
2023-03-16T07:06:21.904Z,46.44
2023-03-16T07:09:24.117Z,45.29
2023-03-16T07:12:26.145Z,46.15
2023-03-16T07:15:28.017Z,45.74
2023-03-16T07:18:30.321Z,45.40
2023-03-16T07:21:39.203Z,45.55
2023-03-16T07:24:41.751Z,45.70
2023-03-16T07:27:45.513Z,45.26
2023-03-16T07:31:02.510Z,44.47
2023-03-16T07:34:05.171Z,44.62
2023-03-16T07:37:08.647Z,44.36
2023-03-16T07:40:11.131Z,44.07
2023-03-16T07:43:13.267Z,44.45
2023-03-16T07:46:15.117Z,43.56
2023-03-16T07:49:17.065Z,43.86
2023-03-16T07:52:18.959Z,43.71
2023-03-16T07:55:20.955Z,43.52
2023-03-16T07:58:22.810Z,43.27
2023-03-16T08:01:25.001Z,43.55
2023-03-16T08:04:26.853Z,42.81
2023-03-16T08:07:28.649Z,43.42
2023-03-16T08:10:31.371Z,43.46
2023-03-16T08:13:35.377Z,43.53
2023-03-16T08:16:37.507Z,42.80
2023-03-16T08:19:39.445Z,42.47
2023-03-16T08:22:42.798Z,42.42
2023-03-16T08:25:44.586Z,41.79
2023-03-16T08:28:47.724Z,40.72
2023-03-16T08:31:49.526Z,41.42
2023-03-16T08:34:52.588Z,41.25
2023-03-16T08:37:54.981Z,40.52
2023-03-16T08:40:57.373Z,40.15
2023-03-16T08:43:59.954Z,40.25
2023-03-16T08:47:02.675Z,40.15
2023-03-16T08:50:06.080Z,40.30
2023-03-16T08:53:07.999Z,40.31
2023-03-16T08:56:12.352Z,40.28
2023-03-16T08:59:23.701Z,40.05
2023-03-16T09:02:30.650Z,40.27
2023-03-16T09:05:33.042Z,39.90
2023-03-16T09:08:36.291Z,39.53
2023-03-16T09:11:38.471Z,34.86
2023-03-16T09:14:40.500Z,35.89
2023-03-16T09:17:43.196Z,39.41
2023-03-16T09:20:47.810Z,36.21
2023-03-16T09:23:49.699Z,35.16
2023-03-16T09:26:51.844Z,35.86
2023-03-16T09:29:56.402Z,34.88
2023-03-16T09:32:58.366Z,34.34
2023-03-16T09:36:00.743Z,34.79
2023-03-16T09:39:03.294Z,33.72
2023-03-16T09:42:13.808Z,33.65
2023-03-16T09:45:27.672Z,34.19
2023-03-16T09:48:31.008Z,33.98
2023-03-16T09:51:56.448Z,33.26
2023-03-16T09:54:58.191Z,33.76
2023-03-16T09:58:01.254Z,33.66
2023-03-16T10:01:10.819Z,31.52
2023-03-16T10:04:17.348Z,31.45
2023-03-16T10:07:26.473Z,31.85
2023-03-16T10:10:40.254Z,31.63
2023-03-16T10:14:06.132Z,31.51
2023-03-16T10:17:17.818Z,32.01
2023-03-16T10:20:23.376Z,32.54
2023-03-16T10:23:26.061Z,32.22
2023-03-16T10:26:39.126Z,31.80
2023-03-16T10:29:41.449Z,30.79
2023-03-16T10:32:43.335Z,29.27
2023-03-16T10:35:49.160Z,27.78
2023-03-16T10:38:55.259Z,28.56
2023-03-16T10:41:59.079Z,27.53
2023-03-16T10:45:03.008Z,27.42
2023-03-16T10:48:07.079Z,25.37
2023-03-16T10:51:13.412Z,24.69
2023-03-16T10:54:17.183Z,25.53
2023-03-16T10:57:26.181Z,26.05
2023-03-16T11:00:41.907Z,25.60
2023-03-16T11:03:51.156Z,26.04
2023-03-16T11:06:56.013Z,26.76
2023-03-16T11:09:59.720Z,27.58
2023-03-16T11:13:09.042Z,26.74
2023-03-16T11:16:30.708Z,26.35
2023-03-16T11:19:51.618Z,25.04
2023-03-16T11:22:53.573Z,24.13
2023-03-16T11:25:56.934Z,25.08
2023-03-16T11:29:34.554Z,26.33
2023-03-16T11:32:40.313Z,27.09
2023-03-16T11:36:10.876Z,26.19
2023-03-16T11:39:33.919Z,24.43
2023-03-16T11:42:39.610Z,25.85
2023-03-16T11:46:09.029Z,25.51
2023-03-16T11:49:32.469Z,24.76
2023-03-16T11:53:09.800Z,25.04
2023-03-16T11:56:33.255Z,25.64
2023-03-16T12:00:01.485Z,25.08
2023-03-16T12:03:14.954Z,25.86
2023-03-16T12:06:28.186Z,25.03
2023-03-16T12:09:48.223Z,24.79
2023-03-16T12:12:56.298Z,25.41
2023-03-16T12:16:05.810Z,24.58
2023-03-16T12:19:15.805Z,23.23
2023-03-16T12:22:29.656Z,23.51
2023-03-16T12:25:35.068Z,23.20
2023-03-16T12:28:37.269Z,24.23
2023-03-16T12:31:59.463Z,23.88
2023-03-16T12:35:26.221Z,24.37
2023-03-16T12:38:37.764Z,23.94
2023-03-16T12:41:46.231Z,23.52
2023-03-16T12:44:51.698Z,24.04
2023-03-16T12:48:15.042Z,24.91
2023-03-16T12:51:17.365Z,24.93
2023-03-16T12:54:21.992Z,23.00
2023-03-16T12:57:27.222Z,23.60
2023-03-16T13:00:37.697Z,24.40
2023-03-16T13:03:39.663Z,23.91
2023-03-16T13:06:50.504Z,24.01
2023-03-16T13:09:57.361Z,23.47
2023-03-16T13:13:13.119Z,23.05
2023-03-16T13:16:25.105Z,22.50
2023-03-16T13:19:29.606Z,23.19
2023-03-16T13:22:43.257Z,23.61
2023-03-16T13:25:58.660Z,23.49
2023-03-16T13:29:08.181Z,22.60
2023-03-16T13:32:17.878Z,23.35
2023-03-16T13:35:19.978Z,23.48
2023-03-16T13:38:27.388Z,24.22
2023-03-16T13:41:30.555Z,24.32
2023-03-16T13:44:33.002Z,23.39
2023-03-16T13:47:34.808Z,22.02
2023-03-16T13:50:40.070Z,22.69
2023-03-16T13:53:43.352Z,22.05
2023-03-16T13:56:45.348Z,22.66
2023-03-16T13:59:47.220Z,22.18
2023-03-16T14:02:57.444Z,21.62
2023-03-16T14:05:59.787Z,21.96
2023-03-16T14:09:04.808Z,22.73
2023-03-16T14:12:06.954Z,22.22
2023-03-16T14:15:10.174Z,20.72
2023-03-16T14:18:21.511Z,21.17
2023-03-16T14:21:25.934Z,22.36
2023-03-16T14:24:32.250Z,22.45
2023-03-16T14:27:40.579Z,22.20
2023-03-16T14:31:03.785Z,21.28
2023-03-16T14:34:18.860Z,21.03
2023-03-16T14:37:21.025Z,21.40
2023-03-16T14:40:31.138Z,21.24
2023-03-16T14:43:40.258Z,21.69
2023-03-16T14:46:42.370Z,21.74
2023-03-16T14:49:44.556Z,21.98
2023-03-16T14:52:47.221Z,21.80
2023-03-16T14:55:49.621Z,21.92
2023-03-16T14:58:51.740Z,22.67
2023-03-16T15:01:56.109Z,22.87
2023-03-16T15:04:58.910Z,23.41
2023-03-16T15:08:00.826Z,22.96
2023-03-16T15:11:05.870Z,22.35
2023-03-16T15:14:15.010Z,21.98
2023-03-16T15:17:16.902Z,21.87
2023-03-16T15:20:24.281Z,22.51
2023-03-16T15:23:26.644Z,21.28
2023-03-16T15:26:29.795Z,22.10
2023-03-16T15:29:31.837Z,22.90
2023-03-16T15:32:33.752Z,23.66
2023-03-16T15:35:37.151Z,22.18
2023-03-16T15:38:40.828Z,23.45
2023-03-16T15:41:47.753Z,23.30
2023-03-16T15:44:49.898Z,23.86
2023-03-16T15:47:53.466Z,22.98
2023-03-16T15:51:14.526Z,23.88
2023-03-16T15:54:16.452Z,24.36
2023-03-16T15:57:18.349Z,24.07
2023-03-16T16:00:41.032Z,25.03
2023-03-16T16:03:42.989Z,25.74
2023-03-16T16:06:45.101Z,26.07
2023-03-16T16:09:56.827Z,26.39
2023-03-16T16:12:59.179Z,26.19
2023-03-16T16:16:01.375Z,26.15
2023-03-16T16:19:03.480Z,26.15
2023-03-16T16:22:05.993Z,26.36
2023-03-16T16:25:09.441Z,27.10
2023-03-16T16:28:20.140Z,26.82
2023-03-16T16:31:23.203Z,27.18
2023-03-16T16:34:25.611Z,27.87
2023-03-16T16:37:27.498Z,27.50
2023-03-16T16:40:35.606Z,28.16
2023-03-16T16:43:43.160Z,28.43
2023-03-16T16:46:45.224Z,29.29
2023-03-16T16:49:47.111Z,29.52
2023-03-16T16:52:50.652Z,29.85
2023-03-16T16:55:53.651Z,30.10
2023-03-16T16:58:57.223Z,30.34
2023-03-16T17:02:17.358Z,30.87
2023-03-16T17:05:29.265Z,30.84
2023-03-16T17:08:31.772Z,31.23
2023-03-16T17:11:33.969Z,31.66
2023-03-16T17:14:36.213Z,32.23
2023-03-16T17:17:39.515Z,32.69
2023-03-16T17:20:41.730Z,33.24
2023-03-16T17:23:44.708Z,33.90
2023-03-16T17:26:49.386Z,34.35
2023-03-16T17:29:51.733Z,34.71
2023-03-16T17:32:57.071Z,35.08
2023-03-16T17:35:59.512Z,35.49
2023-03-16T17:39:03.253Z,35.99
2023-03-16T17:42:07.400Z,36.37
2023-03-16T17:45:19.534Z,36.70
2023-03-16T17:48:24.081Z,37.85
2023-03-16T17:51:26.720Z,37.99
2023-03-16T17:54:28.988Z,38.38
2023-03-16T17:57:32.797Z,38.73
2023-03-16T18:00:36.266Z,38.95
2023-03-16T18:03:38.854Z,39.29
2023-03-16T18:06:46.753Z,39.86
2023-03-16T18:09:49.284Z,40.15
2023-03-16T18:12:57.508Z,40.48
2023-03-16T18:15:59.762Z,40.99
2023-03-16T18:19:11.840Z,41.66
2023-03-16T18:22:19.451Z,41.93
2023-03-16T18:25:39.023Z,42.51
2023-03-16T18:28:41.937Z,42.90
2023-03-16T18:31:45.957Z,42.94
2023-03-16T18:34:48.323Z,43.18
2023-03-16T18:37:50.586Z,46.69
2023-03-16T18:40:52.756Z,45.10
2023-03-16T18:43:57.613Z,45.49
2023-03-16T18:47:03.156Z,45.08
2023-03-16T18:50:06.469Z,45.21
2023-03-16T18:53:10.666Z,45.42
2023-03-16T18:56:38.773Z,45.96
2023-03-16T18:59:40.838Z,48.32
2023-03-16T19:02:43.841Z,47.55
2023-03-16T19:05:46.498Z,49.44
2023-03-16T19:08:49.738Z,48.34
2023-03-16T19:12:03.565Z,48.97
2023-03-16T19:15:15.701Z,48.86
2023-03-16T19:18:18.058Z,50.19
2023-03-16T19:21:23.030Z,50.34
2023-03-16T19:24:36.518Z,50.30
2023-03-16T19:27:38.679Z,51.65
2023-03-16T19:30:41.512Z,50.90
2023-03-16T19:33:43.942Z,52.07
2023-03-16T19:36:46.767Z,51.33
2023-03-16T19:39:49.732Z,51.01
2023-03-16T19:42:52.264Z,50.71
2023-03-16T19:45:56.643Z,51.56
2023-03-16T19:48:58.917Z,54.86
2023-03-16T19:52:01.319Z,53.30
2023-03-16T19:55:03.667Z,53.67
2023-03-16T19:58:07.625Z,52.88
2023-03-16T20:01:21.999Z,52.44
2023-03-16T20:04:26.608Z,53.12
2023-03-16T20:07:29.348Z,53.09
2023-03-16T20:10:32.781Z,52.54
2023-03-16T20:13:35.476Z,52.62
2023-03-16T20:16:37.795Z,52.82
2023-03-16T20:19:40.206Z,53.69
2023-03-16T20:22:42.204Z,54.44
2023-03-16T20:25:45.048Z,53.89
2023-03-16T20:28:48.336Z,55.74
2023-03-16T20:31:50.563Z,56.84
2023-03-16T20:34:53.980Z,55.76
2023-03-16T20:37:56.450Z,56.27
2023-03-16T20:40:58.261Z,56.25
2023-03-16T20:44:01.830Z,57.58
2023-03-16T20:47:03.950Z,57.47
2023-03-16T20:50:06.292Z,57.54
2023-03-16T20:53:08.608Z,57.55
2023-03-16T20:56:19.073Z,57.37
2023-03-16T20:59:24.730Z,58.85
2023-03-16T21:02:46.042Z,58.29
2023-03-16T21:05:52.363Z,58.87
2023-03-16T21:08:56.993Z,58.80
2023-03-16T21:11:59.016Z,60.25
2023-03-16T21:15:04.505Z,60.61
2023-03-16T21:18:08.002Z,60.41
2023-03-16T21:21:15.275Z,62.41
2023-03-16T21:24:17.422Z,62.30
2023-03-16T21:27:25.658Z,61.00
2023-03-16T21:30:33.230Z,60.70
2023-03-16T21:33:40.270Z,60.51
2023-03-16T21:36:44.303Z,60.81
2023-03-16T21:39:48.017Z,60.93
2023-03-16T21:42:50.550Z,61.11
2023-03-16T21:45:52.793Z,61.33
2023-03-16T21:48:55.812Z,61.64
2023-03-16T21:51:57.535Z,60.88
2023-03-16T21:55:00.673Z,61.65
2023-03-16T21:58:02.770Z,62.31
2023-03-16T22:01:04.822Z,62.34
2023-03-16T22:04:11.641Z,62.21
2023-03-16T22:07:14.096Z,62.57
2023-03-16T22:10:16.557Z,62.05
2023-03-16T22:13:19.252Z,63.03
2023-03-16T22:16:34.932Z,63.15
2023-03-16T22:19:37.008Z,64.62
2023-03-16T22:22:39.123Z,63.39
2023-03-16T22:25:40.857Z,63.89
2023-03-16T22:28:42.946Z,64.45
2023-03-16T22:31:46.551Z,64.71
2023-03-16T22:34:51.247Z,64.59
2023-03-16T22:37:56.713Z,64.54
2023-03-16T22:40:59.655Z,65.04
2023-03-16T22:44:01.752Z,64.98
2023-03-16T22:47:03.580Z,65.29
2023-03-16T22:50:06.779Z,65.06
2023-03-16T22:53:09.032Z,65.92
2023-03-16T22:56:11.069Z,67.03
2023-03-16T22:59:21.384Z,66.40
2023-03-16T23:02:26.077Z,66.56
2023-03-16T23:05:29.827Z,66.98
2023-03-16T23:08:32.426Z,66.73
2023-03-16T23:11:36.494Z,66.59
2023-03-16T23:14:38.483Z,66.54
2023-03-16T23:17:40.677Z,66.97
2023-03-16T23:20:42.647Z,65.83
2023-03-16T23:23:53.956Z,65.75
2023-03-16T23:27:05.236Z,66.01
2023-03-16T23:30:16.808Z,65.66
2023-03-16T23:33:18.656Z,66.43
2023-03-16T23:36:22.490Z,66.22
2023-03-16T23:39:24.540Z,66.19
2023-03-16T23:42:27.048Z,66.87
2023-03-16T23:45:39.164Z,66.51
2023-03-16T23:48:42.989Z,66.84
2023-03-16T23:51:45.305Z,66.75
2023-03-16T23:54:49.554Z,66.85
2023-03-16T23:57:51.391Z,67.22
